sensor_id;sensor_type;location;lat;lon;timestamp;temperature;humidity
22974;DHT22;11653;50.848;4.584;2022-12-13T00:00:14;-2.90;99.90
22974;DHT22;11653;50.848;4.584;2022-12-13T00:02:40;-2.90;99.90
22974;DHT22;11653;50.848;4.584;2022-12-13T00:05:07;-2.90;99.90
22974;DHT22;11653;50.848;4.584;2022-12-13T00:07:34;-2.90;99.90
22974;DHT22;11653;50.848;4.584;2022-12-13T00:09:59;-2.80;99.90
22974;DHT22;11653;50.848;4.584;2022-12-13T00:12:25;-2.80;99.90
22974;DHT22;11653;50.848;4.584;2022-12-13T00:14:51;-2.80;99.90
22974;DHT22;11653;50.848;4.584;2022-12-13T00:17:17;-2.80;99.90
22974;DHT22;11653;50.848;4.584;2022-12-13T00:19:42;-2.80;99.90
22974;DHT22;11653;50.848;4.584;2022-12-13T00:22:08;-2.80;99.90
22974;DHT22;11653;50.848;4.584;2022-12-13T00:24:34;-2.80;99.90
22974;DHT22;11653;50.848;4.584;2022-12-13T00:26:59;-2.80;99.90
22974;DHT22;11653;50.848;4.584;2022-12-13T00:29:25;-2.80;99.90
22974;DHT22;11653;50.848;4.584;2022-12-13T00:31:51;-2.80;99.90
22974;DHT22;11653;50.848;4.584;2022-12-13T00:34:17;-2.80;99.90
22974;DHT22;11653;50.848;4.584;2022-12-13T00:36:44;-2.80;99.90
22974;DHT22;11653;50.848;4.584;2022-12-13T00:39:09;-2.80;99.90
22974;DHT22;11653;50.848;4.584;2022-12-13T00:41:38;-2.80;99.90
22974;DHT22;11653;50.848;4.584;2022-12-13T00:44:05;-2.80;99.90
22974;DHT22;11653;50.848;4.584;2022-12-13T00:46:31;-2.80;99.90
22974;DHT22;11653;50.848;4.584;2022-12-13T00:48:59;-2.80;99.90
22974;DHT22;11653;50.848;4.584;2022-12-13T00:51:26;-2.80;99.90
22974;DHT22;11653;50.848;4.584;2022-12-13T00:53:52;-2.80;99.90
22974;DHT22;11653;50.848;4.584;2022-12-13T00:56:20;-2.80;99.90
22974;DHT22;11653;50.848;4.584;2022-12-13T00:58:48;-2.80;99.90
22974;DHT22;11653;50.848;4.584;2022-12-13T01:01:15;-2.90;99.90
22974;DHT22;11653;50.848;4.584;2022-12-13T01:03:42;-2.90;99.90
22974;DHT22;11653;50.848;4.584;2022-12-13T01:06:10;-2.90;99.90
22974;DHT22;11653;50.848;4.584;2022-12-13T01:08:37;-2.90;99.90
22974;DHT22;11653;50.848;4.584;2022-12-13T01:11:04;-2.90;99.90
22974;DHT22;11653;50.848;4.584;2022-12-13T01:13:29;-3.00;99.90
22974;DHT22;11653;50.848;4.584;2022-12-13T01:15:55;-3.00;99.90
22974;DHT22;11653;50.848;4.584;2022-12-13T01:18:21;-3.00;99.90
22974;DHT22;11653;50.848;4.584;2022-12-13T01:21:00;-3.00;99.90
22974;DHT22;11653;50.848;4.584;2022-12-13T01:23:27;-3.10;99.90
22974;DHT22;11653;50.848;4.584;2022-12-13T01:25:53;-3.20;99.90
22974;DHT22;11653;50.848;4.584;2022-12-13T01:28:19;-3.20;99.90
22974;DHT22;11653;50.848;4.584;2022-12-13T01:30:53;-3.30;99.90
22974;DHT22;11653;50.848;4.584;2022-12-13T01:33:19;-3.30;99.90
22974;DHT22;11653;50.848;4.584;2022-12-13T01:35:45;-3.30;99.90
22974;DHT22;11653;50.848;4.584;2022-12-13T01:38:11;-3.30;99.90
22974;DHT22;11653;50.848;4.584;2022-12-13T01:40:43;-3.30;99.90
22974;DHT22;11653;50.848;4.584;2022-12-13T01:43:12;-3.40;99.90
22974;DHT22;11653;50.848;4.584;2022-12-13T01:45:38;-3.40;99.90
22974;DHT22;11653;50.848;4.584;2022-12-13T01:48:07;-3.40;99.90
22974;DHT22;11653;50.848;4.584;2022-12-13T01:50:38;-3.40;99.90
22974;DHT22;11653;50.848;4.584;2022-12-13T01:53:06;-3.40;99.90
22974;DHT22;11653;50.848;4.584;2022-12-13T01:55:36;-3.40;99.90
22974;DHT22;11653;50.848;4.584;2022-12-13T01:58:04;-3.40;99.90
22974;DHT22;11653;50.848;4.584;2022-12-13T02:00:34;-3.40;99.90
22974;DHT22;11653;50.848;4.584;2022-12-13T02:03:01;-3.40;99.90
22974;DHT22;11653;50.848;4.584;2022-12-13T02:08:00;-3.50;99.90
22974;DHT22;11653;50.848;4.584;2022-12-13T02:10:27;-3.50;99.90
22974;DHT22;11653;50.848;4.584;2022-12-13T02:12:53;-3.50;99.90
22974;DHT22;11653;50.848;4.584;2022-12-13T02:15:19;-3.40;99.90
22974;DHT22;11653;50.848;4.584;2022-12-13T02:18:08;-3.40;99.90
22974;DHT22;11653;50.848;4.584;2022-12-13T02:21:01;-3.40;99.90
22974;DHT22;11653;50.848;4.584;2022-12-13T02:31:28;-3.40;99.90
22974;DHT22;11653;50.848;4.584;2022-12-13T02:34:07;-3.40;99.90
22974;DHT22;11653;50.848;4.584;2022-12-13T02:36:46;-3.30;99.90
22974;DHT22;11653;50.848;4.584;2022-12-13T02:39:21;-3.40;99.90
22974;DHT22;11653;50.848;4.584;2022-12-13T02:41:50;-3.40;99.90
22974;DHT22;11653;50.848;4.584;2022-12-13T02:44:18;-3.40;99.90
22974;DHT22;11653;50.848;4.584;2022-12-13T02:46:49;-3.40;99.90
22974;DHT22;11653;50.848;4.584;2022-12-13T02:49:18;-3.30;99.90
22974;DHT22;11653;50.848;4.584;2022-12-13T02:51:46;-3.40;99.90
22974;DHT22;11653;50.848;4.584;2022-12-13T02:54:12;-3.30;99.90
22974;DHT22;11653;50.848;4.584;2022-12-13T02:56:37;-3.30;99.90
22974;DHT22;11653;50.848;4.584;2022-12-13T02:59:09;-3.30;99.90
22974;DHT22;11653;50.848;4.584;2022-12-13T03:01:47;-3.20;99.90
22974;DHT22;11653;50.848;4.584;2022-12-13T03:07:29;-3.10;99.90
22974;DHT22;11653;50.848;4.584;2022-12-13T03:10:04;-3.10;99.90
22974;DHT22;11653;50.848;4.584;2022-12-13T03:18:12;-2.90;99.90
22974;DHT22;11653;50.848;4.584;2022-12-13T03:20:49;-2.90;99.90
22974;DHT22;11653;50.848;4.584;2022-12-13T03:23:16;-2.80;99.90
22974;DHT22;11653;50.848;4.584;2022-12-13T03:25:42;-2.80;99.90
22974;DHT22;11653;50.848;4.584;2022-12-13T03:28:09;-2.80;99.90
22974;DHT22;11653;50.848;4.584;2022-12-13T03:30:34;-2.70;99.90
22974;DHT22;11653;50.848;4.584;2022-12-13T03:33:00;-2.70;99.90
22974;DHT22;11653;50.848;4.584;2022-12-13T03:35:27;-2.60;99.90
22974;DHT22;11653;50.848;4.584;2022-12-13T03:37:53;-2.50;99.90
22974;DHT22;11653;50.848;4.584;2022-12-13T03:40:19;-2.60;99.90
22974;DHT22;11653;50.848;4.584;2022-12-13T03:42:46;-2.60;99.90
22974;DHT22;11653;50.848;4.584;2022-12-13T03:45:12;-2.60;99.90
22974;DHT22;11653;50.848;4.584;2022-12-13T03:47:37;-2.50;99.90
22974;DHT22;11653;50.848;4.584;2022-12-13T03:50:04;-2.50;99.90
22974;DHT22;11653;50.848;4.584;2022-12-13T03:52:30;-2.60;99.90
22974;DHT22;11653;50.848;4.584;2022-12-13T03:54:55;-2.50;99.90
22974;DHT22;11653;50.848;4.584;2022-12-13T03:57:21;-2.50;99.90
22974;DHT22;11653;50.848;4.584;2022-12-13T03:59:47;-2.50;99.90
22974;DHT22;11653;50.848;4.584;2022-12-13T04:02:13;-2.50;99.90
22974;DHT22;11653;50.848;4.584;2022-12-13T04:04:38;-2.50;99.90
22974;DHT22;11653;50.848;4.584;2022-12-13T04:07:04;-2.50;99.90
22974;DHT22;11653;50.848;4.584;2022-12-13T04:09:30;-2.50;99.90
22974;DHT22;11653;50.848;4.584;2022-12-13T04:11:55;-2.40;99.90
22974;DHT22;11653;50.848;4.584;2022-12-13T04:14:39;-2.50;99.90
22974;DHT22;11653;50.848;4.584;2022-12-13T04:17:05;-2.40;99.90
22974;DHT22;11653;50.848;4.584;2022-12-13T04:19:30;-2.40;99.90
22974;DHT22;11653;50.848;4.584;2022-12-13T04:21:56;-2.50;99.90
22974;DHT22;11653;50.848;4.584;2022-12-13T04:24:22;-2.50;99.90
22974;DHT22;11653;50.848;4.584;2022-12-13T04:26:48;-2.50;99.90
22974;DHT22;11653;50.848;4.584;2022-12-13T04:29:14;-2.50;99.90
22974;DHT22;11653;50.848;4.584;2022-12-13T04:31:40;-2.50;99.90
22974;DHT22;11653;50.848;4.584;2022-12-13T04:34:05;-2.40;99.90
22974;DHT22;11653;50.848;4.584;2022-12-13T04:36:31;-2.40;99.90
22974;DHT22;11653;50.848;4.584;2022-12-13T04:38:57;-2.40;99.90
22974;DHT22;11653;50.848;4.584;2022-12-13T04:41:23;-2.40;99.90
22974;DHT22;11653;50.848;4.584;2022-12-13T04:43:51;-2.30;99.90
22974;DHT22;11653;50.848;4.584;2022-12-13T04:46:20;-2.30;99.90
22974;DHT22;11653;50.848;4.584;2022-12-13T04:48:47;-2.40;99.90
22974;DHT22;11653;50.848;4.584;2022-12-13T04:51:14;-2.30;99.90
22974;DHT22;11653;50.848;4.584;2022-12-13T04:53:40;-2.30;99.90
22974;DHT22;11653;50.848;4.584;2022-12-13T04:56:06;-2.30;99.90
22974;DHT22;11653;50.848;4.584;2022-12-13T04:58:32;-2.30;99.90
22974;DHT22;11653;50.848;4.584;2022-12-13T05:00:58;-2.40;99.90
22974;DHT22;11653;50.848;4.584;2022-12-13T05:03:24;-2.40;99.90
22974;DHT22;11653;50.848;4.584;2022-12-13T05:05:49;-2.40;99.90
22974;DHT22;11653;50.848;4.584;2022-12-13T05:08:15;-2.40;99.90
22974;DHT22;11653;50.848;4.584;2022-12-13T05:10:41;-2.40;99.90
22974;DHT22;11653;50.848;4.584;2022-12-13T05:13:06;-2.50;99.90
22974;DHT22;11653;50.848;4.584;2022-12-13T05:15:32;-2.50;99.90
22974;DHT22;11653;50.848;4.584;2022-12-13T05:18:02;-2.50;99.90
22974;DHT22;11653;50.848;4.584;2022-12-13T05:20:28;-2.60;99.90
22974;DHT22;11653;50.848;4.584;2022-12-13T05:22:55;-2.60;99.90
22974;DHT22;11653;50.848;4.584;2022-12-13T05:25:25;-2.60;99.90
22974;DHT22;11653;50.848;4.584;2022-12-13T05:27:51;-2.60;99.90
22974;DHT22;11653;50.848;4.584;2022-12-13T05:30:18;-2.70;99.90
22974;DHT22;11653;50.848;4.584;2022-12-13T05:32:44;-2.80;99.90
22974;DHT22;11653;50.848;4.584;2022-12-13T05:35:16;-2.80;99.90
22974;DHT22;11653;50.848;4.584;2022-12-13T05:37:42;-2.80;99.90
22974;DHT22;11653;50.848;4.584;2022-12-13T05:40:08;-2.90;99.90
22974;DHT22;11653;50.848;4.584;2022-12-13T05:42:36;-2.90;99.90
22974;DHT22;11653;50.848;4.584;2022-12-13T05:45:04;-3.00;99.90
22974;DHT22;11653;50.848;4.584;2022-12-13T05:47:29;-3.10;99.90
22974;DHT22;11653;50.848;4.584;2022-12-13T05:49:55;-3.10;99.90
22974;DHT22;11653;50.848;4.584;2022-12-13T05:52:21;-3.10;99.90
22974;DHT22;11653;50.848;4.584;2022-12-13T05:54:47;-3.10;99.90
22974;DHT22;11653;50.848;4.584;2022-12-13T05:57:13;-3.20;99.90
22974;DHT22;11653;50.848;4.584;2022-12-13T05:59:39;-3.20;99.90
22974;DHT22;11653;50.848;4.584;2022-12-13T06:02:05;-3.20;99.90
22974;DHT22;11653;50.848;4.584;2022-12-13T06:04:31;-3.30;99.90
22974;DHT22;11653;50.848;4.584;2022-12-13T06:06:57;-3.30;99.90
22974;DHT22;11653;50.848;4.584;2022-12-13T06:09:22;-3.40;99.90
22974;DHT22;11653;50.848;4.584;2022-12-13T06:11:49;-3.40;99.90
22974;DHT22;11653;50.848;4.584;2022-12-13T06:14:14;-3.50;99.90
22974;DHT22;11653;50.848;4.584;2022-12-13T06:16:41;-3.50;99.90
22974;DHT22;11653;50.848;4.584;2022-12-13T06:19:06;-3.60;99.90
22974;DHT22;11653;50.848;4.584;2022-12-13T06:21:33;-3.60;99.90
22974;DHT22;11653;50.848;4.584;2022-12-13T06:23:59;-3.60;99.90
22974;DHT22;11653;50.848;4.584;2022-12-13T06:26:24;-3.60;99.90
22974;DHT22;11653;50.848;4.584;2022-12-13T06:28:50;-3.60;99.90
22974;DHT22;11653;50.848;4.584;2022-12-13T06:31:16;-3.70;99.90
22974;DHT22;11653;50.848;4.584;2022-12-13T06:33:42;-3.70;99.90
22974;DHT22;11653;50.848;4.584;2022-12-13T06:36:08;-3.70;99.90
22974;DHT22;11653;50.848;4.584;2022-12-13T06:38:34;-3.70;99.90
22974;DHT22;11653;50.848;4.584;2022-12-13T06:41:14;-3.70;99.90
22974;DHT22;11653;50.848;4.584;2022-12-13T06:43:42;-3.70;99.90
22974;DHT22;11653;50.848;4.584;2022-12-13T06:46:08;-3.70;99.90
22974;DHT22;11653;50.848;4.584;2022-12-13T06:48:34;-3.80;99.90
22974;DHT22;11653;50.848;4.584;2022-12-13T06:51:02;-3.70;99.90
22974;DHT22;11653;50.848;4.584;2022-12-13T06:53:28;-3.70;99.90
22974;DHT22;11653;50.848;4.584;2022-12-13T06:55:54;-3.70;99.90
22974;DHT22;11653;50.848;4.584;2022-12-13T06:58:20;-3.70;99.90
22974;DHT22;11653;50.848;4.584;2022-12-13T07:00:46;-3.60;99.90
22974;DHT22;11653;50.848;4.584;2022-12-13T07:03:12;-3.70;99.90
22974;DHT22;11653;50.848;4.584;2022-12-13T07:05:38;-3.70;99.90
22974;DHT22;11653;50.848;4.584;2022-12-13T07:08:05;-3.70;99.90
22974;DHT22;11653;50.848;4.584;2022-12-13T07:10:31;-3.60;99.90
22974;DHT22;11653;50.848;4.584;2022-12-13T07:12:56;-3.60;99.90
22974;DHT22;11653;50.848;4.584;2022-12-13T07:15:22;-3.60;99.90
22974;DHT22;11653;50.848;4.584;2022-12-13T07:17:49;-3.60;99.90
22974;DHT22;11653;50.848;4.584;2022-12-13T07:20:21;-3.70;99.90
22974;DHT22;11653;50.848;4.584;2022-12-13T07:22:49;-3.70;99.90
22974;DHT22;11653;50.848;4.584;2022-12-13T07:25:22;-3.70;99.90
22974;DHT22;11653;50.848;4.584;2022-12-13T07:27:55;-3.70;99.90
22974;DHT22;11653;50.848;4.584;2022-12-13T07:30:22;-3.70;99.90
22974;DHT22;11653;50.848;4.584;2022-12-13T07:32:48;-3.70;99.90
22974;DHT22;11653;50.848;4.584;2022-12-13T07:35:14;-3.60;99.90
22974;DHT22;11653;50.848;4.584;2022-12-13T07:37:39;-3.70;99.90
22974;DHT22;11653;50.848;4.584;2022-12-13T07:40:05;-3.70;99.90
22974;DHT22;11653;50.848;4.584;2022-12-13T07:42:32;-3.70;99.90
22974;DHT22;11653;50.848;4.584;2022-12-13T07:44:58;-3.70;99.90
22974;DHT22;11653;50.848;4.584;2022-12-13T07:47:28;-3.80;99.90
22974;DHT22;11653;50.848;4.584;2022-12-13T07:49:56;-3.80;99.90
22974;DHT22;11653;50.848;4.584;2022-12-13T07:52:22;-3.80;99.90
22974;DHT22;11653;50.848;4.584;2022-12-13T07:54:49;-3.80;99.90
22974;DHT22;11653;50.848;4.584;2022-12-13T07:57:15;-3.90;99.90
22974;DHT22;11653;50.848;4.584;2022-12-13T07:59:41;-3.90;99.90
22974;DHT22;11653;50.848;4.584;2022-12-13T08:02:11;-3.90;99.90
22974;DHT22;11653;50.848;4.584;2022-12-13T08:04:37;-3.80;99.90
22974;DHT22;11653;50.848;4.584;2022-12-13T08:07:07;-3.60;99.90
22974;DHT22;11653;50.848;4.584;2022-12-13T08:09:33;-3.60;99.90
22974;DHT22;11653;50.848;4.584;2022-12-13T08:12:00;-3.60;99.90
22974;DHT22;11653;50.848;4.584;2022-12-13T08:14:26;-3.60;99.90
22974;DHT22;11653;50.848;4.584;2022-12-13T08:16:52;-3.50;99.90
22974;DHT22;11653;50.848;4.584;2022-12-13T08:19:17;-3.30;99.90
22974;DHT22;11653;50.848;4.584;2022-12-13T08:21:44;-3.20;99.90
22974;DHT22;11653;50.848;4.584;2022-12-13T08:24:09;-3.00;99.90
22974;DHT22;11653;50.848;4.584;2022-12-13T08:26:35;-3.00;99.90
22974;DHT22;11653;50.848;4.584;2022-12-13T08:29:02;-3.00;99.90
22974;DHT22;11653;50.848;4.584;2022-12-13T08:31:29;-2.90;99.90
22974;DHT22;11653;50.848;4.584;2022-12-13T08:33:55;-2.80;99.90
22974;DHT22;11653;50.848;4.584;2022-12-13T08:36:20;-2.70;99.90
22974;DHT22;11653;50.848;4.584;2022-12-13T08:38:49;-2.50;99.90
22974;DHT22;11653;50.848;4.584;2022-12-13T08:41:18;-2.50;99.90
22974;DHT22;11653;50.848;4.584;2022-12-13T08:43:45;-2.30;99.90
22974;DHT22;11653;50.848;4.584;2022-12-13T08:46:10;-2.20;99.90
22974;DHT22;11653;50.848;4.584;2022-12-13T08:48:36;-2.20;99.90
22974;DHT22;11653;50.848;4.584;2022-12-13T08:51:05;-2.20;99.90
22974;DHT22;11653;50.848;4.584;2022-12-13T08:53:32;-2.20;99.90
22974;DHT22;11653;50.848;4.584;2022-12-13T08:56:02;-2.00;99.90
22974;DHT22;11653;50.848;4.584;2022-12-13T08:58:28;-2.10;99.90
22974;DHT22;11653;50.848;4.584;2022-12-13T09:00:54;-1.90;99.90
22974;DHT22;11653;50.848;4.584;2022-12-13T09:03:20;-2.00;99.90
22974;DHT22;11653;50.848;4.584;2022-12-13T09:05:46;-2.00;99.90
22974;DHT22;11653;50.848;4.584;2022-12-13T09:08:12;-2.10;99.90
22974;DHT22;11653;50.848;4.584;2022-12-13T09:10:37;-2.10;99.90
22974;DHT22;11653;50.848;4.584;2022-12-13T09:13:03;-2.10;99.90
22974;DHT22;11653;50.848;4.584;2022-12-13T09:15:30;-2.20;99.90
22974;DHT22;11653;50.848;4.584;2022-12-13T09:17:56;-1.90;99.90
22974;DHT22;11653;50.848;4.584;2022-12-13T09:20:23;-1.80;99.90
22974;DHT22;11653;50.848;4.584;2022-12-13T09:22:48;-1.60;99.90
22974;DHT22;11653;50.848;4.584;2022-12-13T09:25:14;-1.40;99.90
22974;DHT22;11653;50.848;4.584;2022-12-13T09:27:40;-1.50;99.90
22974;DHT22;11653;50.848;4.584;2022-12-13T09:30:07;-1.50;99.90
22974;DHT22;11653;50.848;4.584;2022-12-13T09:32:36;-1.40;99.90
22974;DHT22;11653;50.848;4.584;2022-12-13T09:35:02;-1.60;99.90
22974;DHT22;11653;50.848;4.584;2022-12-13T09:37:28;-1.70;99.90
22974;DHT22;11653;50.848;4.584;2022-12-13T09:39:54;-1.60;99.90
22974;DHT22;11653;50.848;4.584;2022-12-13T09:42:22;-1.50;99.90
22974;DHT22;11653;50.848;4.584;2022-12-13T09:44:58;-1.40;99.90
22974;DHT22;11653;50.848;4.584;2022-12-13T09:47:35;-1.20;99.90
22974;DHT22;11653;50.848;4.584;2022-12-13T09:50:10;-1.10;99.90
22974;DHT22;11653;50.848;4.584;2022-12-13T09:52:41;-0.90;99.90
22974;DHT22;11653;50.848;4.584;2022-12-13T09:55:38;-0.50;99.90
22974;DHT22;11653;50.848;4.584;2022-12-13T09:58:16;-0.10;99.90
22974;DHT22;11653;50.848;4.584;2022-12-13T10:00:45;-0.10;99.90
22974;DHT22;11653;50.848;4.584;2022-12-13T10:03:13;-0.20;99.90
22974;DHT22;11653;50.848;4.584;2022-12-13T10:05:43;-0.10;99.90
22974;DHT22;11653;50.848;4.584;2022-12-13T10:08:14;-0.20;99.90
22974;DHT22;11653;50.848;4.584;2022-12-13T10:10:41;-0.10;99.90
22974;DHT22;11653;50.848;4.584;2022-12-13T10:15:47;0.20;99.90
22974;DHT22;11653;50.848;4.584;2022-12-13T10:18:30;0.30;99.90
22974;DHT22;11653;50.848;4.584;2022-12-13T10:20:57;0.70;99.90
22974;DHT22;11653;50.848;4.584;2022-12-13T10:23:23;1.40;99.90
22974;DHT22;11653;50.848;4.584;2022-12-13T10:25:55;2.10;99.90
22974;DHT22;11653;50.848;4.584;2022-12-13T10:28:27;2.80;99.90
22974;DHT22;11653;50.848;4.584;2022-12-13T10:30:54;3.60;99.90
22974;DHT22;11653;50.848;4.584;2022-12-13T10:36:15;4.60;99.90
22974;DHT22;11653;50.848;4.584;2022-12-13T10:38:53;5.20;99.90
22974;DHT22;11653;50.848;4.584;2022-12-13T10:41:36;5.70;99.90
22974;DHT22;11653;50.848;4.584;2022-12-13T10:46:46;4.90;99.90
22974;DHT22;11653;50.848;4.584;2022-12-13T10:49:21;5.20;99.90
22974;DHT22;11653;50.848;4.584;2022-12-13T10:51:49;5.10;99.90
22974;DHT22;11653;50.848;4.584;2022-12-13T10:54:27;5.10;99.90
22974;DHT22;11653;50.848;4.584;2022-12-13T10:56:55;5.40;99.90
22974;DHT22;11653;50.848;4.584;2022-12-13T11:01:50;6.00;99.90
22974;DHT22;11653;50.848;4.584;2022-12-13T11:04:32;6.00;99.90
22974;DHT22;11653;50.848;4.584;2022-12-13T11:07:00;6.10;99.50
22974;DHT22;11653;50.848;4.584;2022-12-13T11:09:33;6.50;98.90
22974;DHT22;11653;50.848;4.584;2022-12-13T11:12:01;6.40;98.90
22974;DHT22;11653;50.848;4.584;2022-12-13T11:14:31;6.40;98.20
22974;DHT22;11653;50.848;4.584;2022-12-13T11:17:04;7.00;98.20
22974;DHT22;11653;50.848;4.584;2022-12-13T11:19:44;6.50;98.10
22974;DHT22;11653;50.848;4.584;2022-12-13T11:22:32;6.80;98.30
22974;DHT22;11653;50.848;4.584;2022-12-13T11:25:00;7.20;96.80
22974;DHT22;11653;50.848;4.584;2022-12-13T11:27:32;7.50;96.00
22974;DHT22;11653;50.848;4.584;2022-12-13T11:33:09;8.20;94.00
22974;DHT22;11653;50.848;4.584;2022-12-13T11:35:52;7.70;93.30
22974;DHT22;11653;50.848;4.584;2022-12-13T11:38:31;7.20;94.40
22974;DHT22;11653;50.848;4.584;2022-12-13T11:41:06;6.90;94.60
22974;DHT22;11653;50.848;4.584;2022-12-13T11:43:54;6.80;95.10
22974;DHT22;11653;50.848;4.584;2022-12-13T11:46:42;6.60;95.20
22974;DHT22;11653;50.848;4.584;2022-12-13T11:49:15;6.20;95.30
22974;DHT22;11653;50.848;4.584;2022-12-13T11:54:51;5.20;97.20
22974;DHT22;11653;50.848;4.584;2022-12-13T12:00:44;4.60;98.90
22974;DHT22;11653;50.848;4.584;2022-12-13T12:03:33;4.20;99.60
22974;DHT22;11653;50.848;4.584;2022-12-13T12:06:15;3.90;99.90
22974;DHT22;11653;50.848;4.584;2022-12-13T12:11:36;3.10;99.90
22974;DHT22;11653;50.848;4.584;2022-12-13T12:16:53;2.60;99.90
22974;DHT22;11653;50.848;4.584;2022-12-13T12:19:23;2.40;99.90
22974;DHT22;11653;50.848;4.584;2022-12-13T12:22:26;2.10;99.90
22974;DHT22;11653;50.848;4.584;2022-12-13T12:25:26;2.10;99.90
22974;DHT22;11653;50.848;4.584;2022-12-13T12:36:58;2.40;99.90
22974;DHT22;11653;50.848;4.584;2022-12-13T12:42:17;2.00;99.90
22974;DHT22;11653;50.848;4.584;2022-12-13T12:55:18;1.60;99.90
22974;DHT22;11653;50.848;4.584;2022-12-13T12:58:33;1.70;99.90
22974;DHT22;11653;50.848;4.584;2022-12-13T13:04:09;2.00;99.90
22974;DHT22;11653;50.848;4.584;2022-12-13T13:06:44;1.70;99.90
22974;DHT22;11653;50.848;4.584;2022-12-13T13:09:13;1.70;99.90
22974;DHT22;11653;50.848;4.584;2022-12-13T13:11:43;1.80;99.90
22974;DHT22;11653;50.848;4.584;2022-12-13T13:14:34;1.60;99.90
22974;DHT22;11653;50.848;4.584;2022-12-13T13:22:42;1.50;99.90
22974;DHT22;11653;50.848;4.584;2022-12-13T13:25:28;1.40;99.90
22974;DHT22;11653;50.848;4.584;2022-12-13T13:28:14;1.50;99.90
22974;DHT22;11653;50.848;4.584;2022-12-13T13:31:18;1.40;99.90
22974;DHT22;11653;50.848;4.584;2022-12-13T13:33:48;1.30;99.90
22974;DHT22;11653;50.848;4.584;2022-12-13T13:47:27;1.40;99.90
22974;DHT22;11653;50.848;4.584;2022-12-13T14:23:45;1.10;99.90
22974;DHT22;11653;50.848;4.584;2022-12-13T14:28:55;1.00;99.90
22974;DHT22;11653;50.848;4.584;2022-12-13T14:31:34;1.10;99.90
22974;DHT22;11653;50.848;4.584;2022-12-13T14:34:03;1.10;99.90
22974;DHT22;11653;50.848;4.584;2022-12-13T14:36:31;1.20;99.90
22974;DHT22;11653;50.848;4.584;2022-12-13T14:39:19;1.30;99.90
22974;DHT22;11653;50.848;4.584;2022-12-13T14:41:47;1.40;99.90
22974;DHT22;11653;50.848;4.584;2022-12-13T14:44:14;1.50;99.90
22974;DHT22;11653;50.848;4.584;2022-12-13T14:46:51;1.50;99.90
22974;DHT22;11653;50.848;4.584;2022-12-13T14:49:18;1.60;99.90
22974;DHT22;11653;50.848;4.584;2022-12-13T14:51:46;1.40;99.90
22974;DHT22;11653;50.848;4.584;2022-12-13T14:54:20;1.40;99.90
22974;DHT22;11653;50.848;4.584;2022-12-13T14:57:01;1.30;99.90
22974;DHT22;11653;50.848;4.584;2022-12-13T14:59:29;1.30;99.90
22974;DHT22;11653;50.848;4.584;2022-12-13T15:02:00;1.20;99.90
22974;DHT22;11653;50.848;4.584;2022-12-13T15:04:30;1.00;99.90
22974;DHT22;11653;50.848;4.584;2022-12-13T15:09:28;1.10;99.90
22974;DHT22;11653;50.848;4.584;2022-12-13T15:11:54;1.10;99.90
22974;DHT22;11653;50.848;4.584;2022-12-13T15:14:22;0.90;99.90
22974;DHT22;11653;50.848;4.584;2022-12-13T15:16:51;1.10;99.90
22974;DHT22;11653;50.848;4.584;2022-12-13T15:19:25;1.20;99.90
22974;DHT22;11653;50.848;4.584;2022-12-13T15:21:59;1.20;99.90
22974;DHT22;11653;50.848;4.584;2022-12-13T15:24:28;1.30;99.90
22974;DHT22;11653;50.848;4.584;2022-12-13T15:26:56;1.00;99.90
22974;DHT22;11653;50.848;4.584;2022-12-13T15:29:24;1.00;99.90
22974;DHT22;11653;50.848;4.584;2022-12-13T15:31:50;1.10;99.90
22974;DHT22;11653;50.848;4.584;2022-12-13T15:36:55;0.90;99.90
22974;DHT22;11653;50.848;4.584;2022-12-13T15:39:23;1.00;99.90
22974;DHT22;11653;50.848;4.584;2022-12-13T15:41:49;0.80;99.90
22974;DHT22;11653;50.848;4.584;2022-12-13T15:44:19;0.60;99.90
22974;DHT22;11653;50.848;4.584;2022-12-13T15:46:49;0.50;99.90
22974;DHT22;11653;50.848;4.584;2022-12-13T15:49:39;0.60;99.90
22974;DHT22;11653;50.848;4.584;2022-12-13T15:52:26;0.60;99.90
22974;DHT22;11653;50.848;4.584;2022-12-13T15:57:33;0.60;99.90
22974;DHT22;11653;50.848;4.584;2022-12-13T16:05:32;0.30;99.90
22974;DHT22;11653;50.848;4.584;2022-12-13T16:08:04;0.40;99.90
22974;DHT22;11653;50.848;4.584;2022-12-13T16:10:31;0.20;99.90
22974;DHT22;11653;50.848;4.584;2022-12-13T16:13:02;0.40;99.90
22974;DHT22;11653;50.848;4.584;2022-12-13T16:15:51;0.50;99.90
22974;DHT22;11653;50.848;4.584;2022-12-13T16:18:23;0.60;99.90
22974;DHT22;11653;50.848;4.584;2022-12-13T16:20:52;0.60;99.90
22974;DHT22;11653;50.848;4.584;2022-12-13T16:23:17;0.40;99.90
22974;DHT22;11653;50.848;4.584;2022-12-13T16:25:43;0.50;99.90
22974;DHT22;11653;50.848;4.584;2022-12-13T16:28:13;0.50;99.90
22974;DHT22;11653;50.848;4.584;2022-12-13T16:33:20;0.70;99.90
22974;DHT22;11653;50.848;4.584;2022-12-13T16:35:47;0.70;99.90
22974;DHT22;11653;50.848;4.584;2022-12-13T16:38:14;0.60;99.90
22974;DHT22;11653;50.848;4.584;2022-12-13T16:40:41;0.60;99.90
22974;DHT22;11653;50.848;4.584;2022-12-13T16:43:15;0.50;99.90
22974;DHT22;11653;50.848;4.584;2022-12-13T16:45:48;0.50;99.90
22974;DHT22;11653;50.848;4.584;2022-12-13T16:48:14;0.60;99.90
22974;DHT22;11653;50.848;4.584;2022-12-13T16:50:41;0.50;99.90
22974;DHT22;11653;50.848;4.584;2022-12-13T16:53:07;0.50;99.90
22974;DHT22;11653;50.848;4.584;2022-12-13T16:55:33;0.50;99.90
22974;DHT22;11653;50.848;4.584;2022-12-13T16:58:01;0.40;99.90
22974;DHT22;11653;50.848;4.584;2022-12-13T17:00:31;0.40;99.90
22974;DHT22;11653;50.848;4.584;2022-12-13T17:02:57;0.40;99.90
22974;DHT22;11653;50.848;4.584;2022-12-13T17:05:25;0.50;99.90
22974;DHT22;11653;50.848;4.584;2022-12-13T17:07:51;0.70;99.90
22974;DHT22;11653;50.848;4.584;2022-12-13T17:10:17;0.70;99.90
22974;DHT22;11653;50.848;4.584;2022-12-13T17:12:43;0.70;99.90
22974;DHT22;11653;50.848;4.584;2022-12-13T17:15:10;0.80;99.90
22974;DHT22;11653;50.848;4.584;2022-12-13T17:17:40;0.60;99.90
22974;DHT22;11653;50.848;4.584;2022-12-13T17:20:09;0.40;99.90
22974;DHT22;11653;50.848;4.584;2022-12-13T17:22:35;0.40;99.90
22974;DHT22;11653;50.848;4.584;2022-12-13T17:25:02;0.50;99.90
22974;DHT22;11653;50.848;4.584;2022-12-13T17:27:28;0.70;99.90
22974;DHT22;11653;50.848;4.584;2022-12-13T17:29:54;0.70;99.90
22974;DHT22;11653;50.848;4.584;2022-12-13T17:32:20;0.70;99.90
22974;DHT22;11653;50.848;4.584;2022-12-13T17:34:46;0.70;99.90
22974;DHT22;11653;50.848;4.584;2022-12-13T17:37:12;0.80;99.90
22974;DHT22;11653;50.848;4.584;2022-12-13T17:39:38;0.70;99.90
22974;DHT22;11653;50.848;4.584;2022-12-13T17:42:03;0.70;99.90
22974;DHT22;11653;50.848;4.584;2022-12-13T17:44:29;0.60;99.90
22974;DHT22;11653;50.848;4.584;2022-12-13T17:46:55;0.70;99.90
22974;DHT22;11653;50.848;4.584;2022-12-13T17:49:21;0.80;99.90
22974;DHT22;11653;50.848;4.584;2022-12-13T17:51:46;0.80;99.90
22974;DHT22;11653;50.848;4.584;2022-12-13T17:54:12;0.80;99.90
22974;DHT22;11653;50.848;4.584;2022-12-13T17:56:38;0.90;99.90
22974;DHT22;11653;50.848;4.584;2022-12-13T17:59:04;1.00;99.90
22974;DHT22;11653;50.848;4.584;2022-12-13T18:01:30;1.00;99.90
22974;DHT22;11653;50.848;4.584;2022-12-13T18:03:56;0.80;99.90
22974;DHT22;11653;50.848;4.584;2022-12-13T18:06:23;0.60;99.90
22974;DHT22;11653;50.848;4.584;2022-12-13T18:08:52;0.50;99.90